Aérodrome :
LOGIN :

S'inscrire | Disclaimer

   EN    FR    IT 

 










Légende :    VFR   VFR Marginal   IFR   IFR Intensif   IFR Très Intensif
Visi : 
Plafond : 
>= 8 km
>= 3000ft
5 à 8 km
1000 à 3000 ft
1500m à 5 km
500 à 1000 ft
800 à 1500m
200 à 500 ft
< 800m
< 200 ft
Symboles :   Orages  Brouillard  Fortes neiges  Fortes précipitations  Vent > 20 kt
SIGMETs :   Divers  Orages  Givrage  Turbulence  Onde Orograph.  Cendres Volcan.







- Altitude de l'aérodrome : 290 ft
- Code IATA : LAI
- Voir les cartes d'approche


LFRO - Lannion

DERNIER METAR :
  • 301230Z AUTO 15010KT 110V180 9999 FEW008/// BKN016/// BKN050/// 12/09 Q0994 TEMPO SHRA BKN015TCU BECMG 24015KT

METARs EXPIRÉS :
  • 301200Z AUTO 12008KT 9999 -RA SCT007/// BKN013/// BKN023/// 11/10 Q0994 TEMPO SHRA BKN015TCU BECMG 24015KT
  • 301130Z AUTO 13007KT 9999 -RA BKN016/// BKN023/// OVC030/// 11/09 Q0995 TEMPO SHRA BKN015TCU BECMG 24015KT
  • 301100Z AUTO 14008KT 110V180 9999 BKN011/// BKN032/// BKN056/// 12/10 Q0995 TEMPO SHRA BKN015TCU BECMG 28012KT
  • 301030Z AUTO 13008KT 9999 -RA FEW008/// SCT039/// BKN052/// 11/10 Q0995 TEMPO SHRA BKN015TCU BECMG 28012KT
  • 301000Z AUTO 13010KT 9999 -RA FEW015/// SCT024/// BKN040/// 10/08 Q0995 BECMG 28012KT RA

TAF TAF LFRO
Valide du 30 à 12h jusqu'au 01 à 12h UTC


301100Z 3012/0112 24015KT 9999 RA SCT012 BKN060
TEMPO 3012/0112 SHRA BKN015TCU
Pas de NOTAMs connus pour ce terrain.
2 SIGMETs publiés pour la FIR Brest (LFRR) :
 
Orages noyés dans la masse
LFRR SIGMET 7 VALID 301245/301500 LFPW
LFRR BREST FIR/UIR EMBD TS OBS WI N4745 W00015 - N4700 W00015 - N4745 W00115 - N4815 W00045 TOP FL300 MOV NE 15KT NC=
Turbulence forte
LFRR SIGMET 6 VALID 301200/301600 LFPW
LFRR BREST FIR/UIR SEV TURB FCST S OF LINE N4545 W00145 - N4600 W00800 SFC/FL070 MOV E 15KT NC=



MET'MAP, la Météo Aéronautique d'un coup d'oeil ! - Copyright ORBIFLY Décembre 2007 - Disclaimer

ORBIFLY MET'MAP TEAM :

Programmation & Développement : Alexandra Zaïnal
Conception & Développement : Baudouin d'Aumeries
Co-Programmation & Développement : Marc-Olivier Méhu
Soutien technique & logistique : Manuel Goepfert

Contact : metmap@orbifly.com




SOURCES & CREDITS :

   NOAA